sensor_id;sensor_type;location;lat;lon;timestamp;temperature;humidity
44111;DHT22;29774;52.664;5.074;2023-01-16T00:02:13;4.90;89.30
44111;DHT22;29774;52.664;5.074;2023-01-16T00:04:38;4.90;89.20
44111;DHT22;29774;52.664;5.074;2023-01-16T00:07:04;4.90;89.10
44111;DHT22;29774;52.664;5.074;2023-01-16T00:09:29;5.00;88.80
44111;DHT22;29774;52.664;5.074;2023-01-16T00:11:55;4.80;88.80
44111;DHT22;29774;52.664;5.074;2023-01-16T00:14:20;4.80;88.90
44111;DHT22;29774;52.664;5.074;2023-01-16T00:16:46;4.90;89.10
44111;DHT22;29774;52.664;5.074;2023-01-16T00:19:12;5.10;89.10
44111;DHT22;29774;52.664;5.074;2023-01-16T00:21:38;4.90;89.20
44111;DHT22;29774;52.664;5.074;2023-01-16T00:24:04;5.00;89.30
44111;DHT22;29774;52.664;5.074;2023-01-16T00:26:31;5.20;89.30
44111;DHT22;29774;52.664;5.074;2023-01-16T00:28:57;5.30;89.30
44111;DHT22;29774;52.664;5.074;2023-01-16T00:31:23;5.40;89.00
44111;DHT22;29774;52.664;5.074;2023-01-16T00:33:50;5.30;88.90
44111;DHT22;29774;52.664;5.074;2023-01-16T00:36:16;5.60;88.80
44111;DHT22;29774;52.664;5.074;2023-01-16T00:38:42;5.40;88.60
44111;DHT22;29774;52.664;5.074;2023-01-16T00:41:07;5.30;88.80
44111;DHT22;29774;52.664;5.074;2023-01-16T00:43:34;5.20;89.00
44111;DHT22;29774;52.664;5.074;2023-01-16T00:45:59;5.30;89.10
44111;DHT22;29774;52.664;5.074;2023-01-16T00:48:25;5.50;89.00
44111;DHT22;29774;52.664;5.074;2023-01-16T00:50:51;5.40;88.80
44111;DHT22;29774;52.664;5.074;2023-01-16T00:53:16;5.50;88.70
44111;DHT22;29774;52.664;5.074;2023-01-16T00:55:42;5.30;88.90
44111;DHT22;29774;52.664;5.074;2023-01-16T00:58:09;5.20;89.00
44111;DHT22;29774;52.664;5.074;2023-01-16T01:00:35;5.10;89.10
44111;DHT22;29774;52.664;5.074;2023-01-16T01:03:02;5.20;89.30
44111;DHT22;29774;52.664;5.074;2023-01-16T01:05:28;5.10;89.30
44111;DHT22;29774;52.664;5.074;2023-01-16T01:07:54;5.10;89.50
44111;DHT22;29774;52.664;5.074;2023-01-16T01:10:19;5.20;89.40
44111;DHT22;29774;52.664;5.074;2023-01-16T01:12:45;5.10;89.40
44111;DHT22;29774;52.664;5.074;2023-01-16T01:15:11;5.10;89.40
44111;DHT22;29774;52.664;5.074;2023-01-16T01:17:36;5.30;89.30
44111;DHT22;29774;52.664;5.074;2023-01-16T01:20:02;5.10;89.10
44111;DHT22;29774;52.664;5.074;2023-01-16T01:22:28;5.10;88.90
44111;DHT22;29774;52.664;5.074;2023-01-16T01:24:54;5.10;88.80
44111;DHT22;29774;52.664;5.074;2023-01-16T01:27:19;5.00;88.70
44111;DHT22;29774;52.664;5.074;2023-01-16T01:29:45;5.00;88.70
44111;DHT22;29774;52.664;5.074;2023-01-16T01:32:11;5.20;88.70
44111;DHT22;29774;52.664;5.074;2023-01-16T01:34:36;5.10;88.30
44111;DHT22;29774;52.664;5.074;2023-01-16T01:37:03;4.90;88.20
44111;DHT22;29774;52.664;5.074;2023-01-16T01:39:30;4.80;88.40
44111;DHT22;29774;52.664;5.074;2023-01-16T01:41:56;4.70;88.40
44111;DHT22;29774;52.664;5.074;2023-01-16T01:44:56;4.60;88.50
44111;DHT22;29774;52.664;5.074;2023-01-16T01:47:34;4.50;88.70
44111;DHT22;29774;52.664;5.074;2023-01-16T01:50:10;4.60;88.80
44111;DHT22;29774;52.664;5.074;2023-01-16T01:52:39;4.50;88.80
44111;DHT22;29774;52.664;5.074;2023-01-16T01:55:08;4.60;88.80
44111;DHT22;29774;52.664;5.074;2023-01-16T01:57:39;4.70;88.70
44111;DHT22;29774;52.664;5.074;2023-01-16T02:00:12;4.70;88.70
44111;DHT22;29774;52.664;5.074;2023-01-16T02:02:44;4.50;88.70
44111;DHT22;29774;52.664;5.074;2023-01-16T02:05:12;4.60;89.00
44111;DHT22;29774;52.664;5.074;2023-01-16T02:07:41;4.60;89.10
44111;DHT22;29774;52.664;5.074;2023-01-16T02:10:20;4.50;89.20
44111;DHT22;29774;52.664;5.074;2023-01-16T02:12:48;4.50;89.40
44111;DHT22;29774;52.664;5.074;2023-01-16T02:15:13;4.60;89.50
44111;DHT22;29774;52.664;5.074;2023-01-16T02:17:45;4.60;89.60
44111;DHT22;29774;52.664;5.074;2023-01-16T02:20:32;4.50;89.80
44111;DHT22;29774;52.664;5.074;2023-01-16T02:26:26;4.80;89.60
44111;DHT22;29774;52.664;5.074;2023-01-16T02:32:14;5.40;89.30
44111;DHT22;29774;52.664;5.074;2023-01-16T02:34:48;5.70;88.80
44111;DHT22;29774;52.664;5.074;2023-01-16T02:40:13;5.50;88.00
44111;DHT22;29774;52.664;5.074;2023-01-16T02:53:33;6.30;87.10
44111;DHT22;29774;52.664;5.074;2023-01-16T02:56:07;6.30;86.60
44111;DHT22;29774;52.664;5.074;2023-01-16T02:58:40;6.20;86.50
44111;DHT22;29774;52.664;5.074;2023-01-16T03:01:07;5.80;86.10
44111;DHT22;29774;52.664;5.074;2023-01-16T03:04:02;5.80;86.30
44111;DHT22;29774;52.664;5.074;2023-01-16T03:06:44;5.40;86.40
44111;DHT22;29774;52.664;5.074;2023-01-16T03:15:01;5.20;87.50
44111;DHT22;29774;52.664;5.074;2023-01-16T03:20:33;5.00;87.70
44111;DHT22;29774;52.664;5.074;2023-01-16T03:23:24;5.10;87.90
44111;DHT22;29774;52.664;5.074;2023-01-16T03:25:58;5.20;87.90
44111;DHT22;29774;52.664;5.074;2023-01-16T03:28:31;5.40;88.10
44111;DHT22;29774;52.664;5.074;2023-01-16T03:33:51;6.20;87.80
44111;DHT22;29774;52.664;5.074;2023-01-16T03:36:33;6.40;87.00
44111;DHT22;29774;52.664;5.074;2023-01-16T03:39:04;6.10;86.10
44111;DHT22;29774;52.664;5.074;2023-01-16T03:41:33;5.80;86.00
44111;DHT22;29774;52.664;5.074;2023-01-16T03:44:05;5.70;86.30
44111;DHT22;29774;52.664;5.074;2023-01-16T03:46:39;5.30;86.50
44111;DHT22;29774;52.664;5.074;2023-01-16T03:49:11;5.20;87.00
44111;DHT22;29774;52.664;5.074;2023-01-16T03:51:46;5.00;87.30
44111;DHT22;29774;52.664;5.074;2023-01-16T03:57:13;4.70;87.70
44111;DHT22;29774;52.664;5.074;2023-01-16T03:59:42;4.50;87.90
44111;DHT22;29774;52.664;5.074;2023-01-16T04:02:30;4.50;88.20
44111;DHT22;29774;52.664;5.074;2023-01-16T04:05:23;4.40;88.60
44111;DHT22;29774;52.664;5.074;2023-01-16T04:08:02;4.40;88.80
44111;DHT22;29774;52.664;5.074;2023-01-16T04:10:31;4.50;88.70
44111;DHT22;29774;52.664;5.074;2023-01-16T04:13:05;4.40;88.70
44111;DHT22;29774;52.664;5.074;2023-01-16T04:15:34;4.30;89.00
44111;DHT22;29774;52.664;5.074;2023-01-16T04:18:01;4.20;89.20
44111;DHT22;29774;52.664;5.074;2023-01-16T04:20:29;4.30;89.50
44111;DHT22;29774;52.664;5.074;2023-01-16T04:22:55;4.30;89.80
44111;DHT22;29774;52.664;5.074;2023-01-16T04:25:21;4.30;90.00
44111;DHT22;29774;52.664;5.074;2023-01-16T04:27:46;4.40;90.20
44111;DHT22;29774;52.664;5.074;2023-01-16T04:30:12;4.60;90.20
44111;DHT22;29774;52.664;5.074;2023-01-16T04:32:38;4.60;90.30
44111;DHT22;29774;52.664;5.074;2023-01-16T04:35:05;4.60;90.40
44111;DHT22;29774;52.664;5.074;2023-01-16T04:37:30;4.70;90.40
44111;DHT22;29774;52.664;5.074;2023-01-16T04:39:56;4.70;90.40
44111;DHT22;29774;52.664;5.074;2023-01-16T04:42:24;4.70;90.40
44111;DHT22;29774;52.664;5.074;2023-01-16T04:44:49;4.70;90.50
44111;DHT22;29774;52.664;5.074;2023-01-16T04:47:15;4.70;90.50
44111;DHT22;29774;52.664;5.074;2023-01-16T04:49:40;4.60;90.50
44111;DHT22;29774;52.664;5.074;2023-01-16T04:52:06;4.60;90.60
44111;DHT22;29774;52.664;5.074;2023-01-16T04:54:32;4.90;90.40
44111;DHT22;29774;52.664;5.074;2023-01-16T04:56:58;4.80;90.30
44111;DHT22;29774;52.664;5.074;2023-01-16T04:59:23;4.70;90.20
44111;DHT22;29774;52.664;5.074;2023-01-16T05:01:49;4.60;90.20
44111;DHT22;29774;52.664;5.074;2023-01-16T05:04:15;4.60;90.20
44111;DHT22;29774;52.664;5.074;2023-01-16T05:06:42;4.50;90.20
44111;DHT22;29774;52.664;5.074;2023-01-16T05:09:08;4.40;90.20
44111;DHT22;29774;52.664;5.074;2023-01-16T05:11:34;4.50;90.30
44111;DHT22;29774;52.664;5.074;2023-01-16T05:13:59;4.40;90.20
44111;DHT22;29774;52.664;5.074;2023-01-16T05:16:26;4.40;90.20
44111;DHT22;29774;52.664;5.074;2023-01-16T05:18:52;4.40;90.20
44111;DHT22;29774;52.664;5.074;2023-01-16T05:21:17;4.30;90.30
44111;DHT22;29774;52.664;5.074;2023-01-16T05:23:43;4.40;90.40
44111;DHT22;29774;52.664;5.074;2023-01-16T05:26:09;4.30;90.40
44111;DHT22;29774;52.664;5.074;2023-01-16T05:28:35;4.30;90.40
44111;DHT22;29774;52.664;5.074;2023-01-16T05:31:02;4.30;90.50
44111;DHT22;29774;52.664;5.074;2023-01-16T05:33:28;4.20;90.60
44111;DHT22;29774;52.664;5.074;2023-01-16T05:35:54;4.20;90.60
44111;DHT22;29774;52.664;5.074;2023-01-16T05:38:20;4.20;90.70
44111;DHT22;29774;52.664;5.074;2023-01-16T05:40:47;4.20;90.70
44111;DHT22;29774;52.664;5.074;2023-01-16T05:43:13;4.20;90.80
44111;DHT22;29774;52.664;5.074;2023-01-16T05:45:38;4.20;90.80
44111;DHT22;29774;52.664;5.074;2023-01-16T05:48:04;4.20;90.80
44111;DHT22;29774;52.664;5.074;2023-01-16T05:50:30;4.20;90.80
44111;DHT22;29774;52.664;5.074;2023-01-16T05:52:56;4.20;90.80
44111;DHT22;29774;52.664;5.074;2023-01-16T05:55:22;4.10;90.80
44111;DHT22;29774;52.664;5.074;2023-01-16T05:57:47;4.20;90.80
44111;DHT22;29774;52.664;5.074;2023-01-16T06:00:13;4.20;90.90
44111;DHT22;29774;52.664;5.074;2023-01-16T06:02:39;4.20;90.90
44111;DHT22;29774;52.664;5.074;2023-01-16T06:05:05;4.20;90.90
44111;DHT22;29774;52.664;5.074;2023-01-16T06:07:31;4.20;90.90
44111;DHT22;29774;52.664;5.074;2023-01-16T06:09:57;4.20;90.90
44111;DHT22;29774;52.664;5.074;2023-01-16T06:12:22;4.20;91.00
44111;DHT22;29774;52.664;5.074;2023-01-16T06:14:48;4.20;90.90
44111;DHT22;29774;52.664;5.074;2023-01-16T06:17:14;4.20;91.00
44111;DHT22;29774;52.664;5.074;2023-01-16T06:19:41;4.20;90.90
44111;DHT22;29774;52.664;5.074;2023-01-16T06:22:07;4.20;90.90
44111;DHT22;29774;52.664;5.074;2023-01-16T06:24:32;4.20;90.90
44111;DHT22;29774;52.664;5.074;2023-01-16T06:26:58;4.20;90.90
44111;DHT22;29774;52.664;5.074;2023-01-16T06:29:24;4.20;90.90
44111;DHT22;29774;52.664;5.074;2023-01-16T06:31:52;4.20;90.90
44111;DHT22;29774;52.664;5.074;2023-01-16T06:34:18;4.20;90.90
44111;DHT22;29774;52.664;5.074;2023-01-16T06:36:44;4.20;91.00
44111;DHT22;29774;52.664;5.074;2023-01-16T06:39:11;4.20;91.00
44111;DHT22;29774;52.664;5.074;2023-01-16T06:41:37;4.20;91.00
44111;DHT22;29774;52.664;5.074;2023-01-16T06:44:03;4.20;91.00
44111;DHT22;29774;52.664;5.074;2023-01-16T06:46:29;4.20;91.00
44111;DHT22;29774;52.664;5.074;2023-01-16T06:48:55;4.20;91.00
44111;DHT22;29774;52.664;5.074;2023-01-16T06:51:21;4.20;91.00
44111;DHT22;29774;52.664;5.074;2023-01-16T06:53:46;4.20;91.00
44111;DHT22;29774;52.664;5.074;2023-01-16T06:56:12;4.20;91.00
44111;DHT22;29774;52.664;5.074;2023-01-16T06:58:38;4.30;91.00
44111;DHT22;29774;52.664;5.074;2023-01-16T07:01:03;4.20;91.00
44111;DHT22;29774;52.664;5.074;2023-01-16T07:03:32;4.30;91.00
44111;DHT22;29774;52.664;5.074;2023-01-16T07:05:58;4.30;91.00
44111;DHT22;29774;52.664;5.074;2023-01-16T07:08:23;4.30;91.00
44111;DHT22;29774;52.664;5.074;2023-01-16T07:10:49;4.30;90.90
44111;DHT22;29774;52.664;5.074;2023-01-16T07:13:15;4.30;90.90
44111;DHT22;29774;52.664;5.074;2023-01-16T07:15:45;4.30;90.90
44111;DHT22;29774;52.664;5.074;2023-01-16T07:18:29;4.30;90.90
44111;DHT22;29774;52.664;5.074;2023-01-16T07:21:14;4.40;90.90
44111;DHT22;29774;52.664;5.074;2023-01-16T07:24:03;4.30;90.90
44111;DHT22;29774;52.664;5.074;2023-01-16T07:26:32;4.40;91.00
44111;DHT22;29774;52.664;5.074;2023-01-16T07:28:59;4.30;91.00
44111;DHT22;29774;52.664;5.074;2023-01-16T07:31:25;4.40;91.10
44111;DHT22;29774;52.664;5.074;2023-01-16T07:33:51;4.40;91.10
44111;DHT22;29774;52.664;5.074;2023-01-16T07:36:17;4.40;91.20
44111;DHT22;29774;52.664;5.074;2023-01-16T07:38:42;4.40;91.20
44111;DHT22;29774;52.664;5.074;2023-01-16T07:41:08;4.40;91.20
44111;DHT22;29774;52.664;5.074;2023-01-16T07:43:34;4.40;91.30
44111;DHT22;29774;52.664;5.074;2023-01-16T07:46:00;4.40;91.40
44111;DHT22;29774;52.664;5.074;2023-01-16T07:48:25;4.40;91.50
44111;DHT22;29774;52.664;5.074;2023-01-16T07:50:51;4.40;91.60
44111;DHT22;29774;52.664;5.074;2023-01-16T07:53:18;4.40;91.60
44111;DHT22;29774;52.664;5.074;2023-01-16T07:55:49;4.40;91.70
44111;DHT22;29774;52.664;5.074;2023-01-16T07:58:15;4.40;91.70
44111;DHT22;29774;52.664;5.074;2023-01-16T08:00:40;4.40;91.80
44111;DHT22;29774;52.664;5.074;2023-01-16T08:03:06;4.40;91.80
44111;DHT22;29774;52.664;5.074;2023-01-16T08:05:32;4.40;91.80
44111;DHT22;29774;52.664;5.074;2023-01-16T08:07:57;4.40;91.90
44111;DHT22;29774;52.664;5.074;2023-01-16T08:10:23;4.40;91.90
44111;DHT22;29774;52.664;5.074;2023-01-16T08:12:48;4.40;91.90
44111;DHT22;29774;52.664;5.074;2023-01-16T08:15:14;4.40;91.90
44111;DHT22;29774;52.664;5.074;2023-01-16T08:17:40;4.40;91.80
44111;DHT22;29774;52.664;5.074;2023-01-16T08:20:08;4.40;91.80
44111;DHT22;29774;52.664;5.074;2023-01-16T08:22:34;4.40;91.70
44111;DHT22;29774;52.664;5.074;2023-01-16T08:24:59;4.40;91.70
44111;DHT22;29774;52.664;5.074;2023-01-16T08:27:25;4.40;91.70
44111;DHT22;29774;52.664;5.074;2023-01-16T08:29:50;4.30;91.60
44111;DHT22;29774;52.664;5.074;2023-01-16T08:32:16;4.30;91.60
44111;DHT22;29774;52.664;5.074;2023-01-16T08:34:42;4.30;91.60
44111;DHT22;29774;52.664;5.074;2023-01-16T08:37:08;4.30;91.60
44111;DHT22;29774;52.664;5.074;2023-01-16T08:39:36;4.20;91.60
44111;DHT22;29774;52.664;5.074;2023-01-16T08:42:02;4.20;91.50
44111;DHT22;29774;52.664;5.074;2023-01-16T08:44:46;4.20;91.50
44111;DHT22;29774;52.664;5.074;2023-01-16T08:47:31;4.20;91.50
44111;DHT22;29774;52.664;5.074;2023-01-16T08:50:17;4.20;91.50
44111;DHT22;29774;52.664;5.074;2023-01-16T08:53:02;4.20;91.50
44111;DHT22;29774;52.664;5.074;2023-01-16T08:55:28;4.20;91.50
44111;DHT22;29774;52.664;5.074;2023-01-16T08:57:53;4.20;91.50
44111;DHT22;29774;52.664;5.074;2023-01-16T09:00:20;4.30;91.40
44111;DHT22;29774;52.664;5.074;2023-01-16T09:02:46;4.20;91.40
44111;DHT22;29774;52.664;5.074;2023-01-16T09:05:12;4.20;91.50
44111;DHT22;29774;52.664;5.074;2023-01-16T09:07:39;4.20;91.50
44111;DHT22;29774;52.664;5.074;2023-01-16T09:10:05;4.20;91.50
44111;DHT22;29774;52.664;5.074;2023-01-16T09:12:31;4.20;91.40
44111;DHT22;29774;52.664;5.074;2023-01-16T09:15:16;4.10;91.40
44111;DHT22;29774;52.664;5.074;2023-01-16T09:17:41;4.20;91.40
44111;DHT22;29774;52.664;5.074;2023-01-16T09:20:08;4.10;91.40
44111;DHT22;29774;52.664;5.074;2023-01-16T09:22:34;4.10;91.30
44111;DHT22;29774;52.664;5.074;2023-01-16T09:24:59;4.00;91.30
44111;DHT22;29774;52.664;5.074;2023-01-16T09:27:25;4.00;91.40
44111;DHT22;29774;52.664;5.074;2023-01-16T09:29:51;4.00;91.50
44111;DHT22;29774;52.664;5.074;2023-01-16T09:32:17;4.00;91.50
44111;DHT22;29774;52.664;5.074;2023-01-16T09:34:44;4.00;91.60
44111;DHT22;29774;52.664;5.074;2023-01-16T09:37:10;4.00;91.60
44111;DHT22;29774;52.664;5.074;2023-01-16T09:39:36;4.00;91.70
44111;DHT22;29774;52.664;5.074;2023-01-16T09:44:50;3.90;91.80
44111;DHT22;29774;52.664;5.074;2023-01-16T09:47:20;4.00;91.90
44111;DHT22;29774;52.664;5.074;2023-01-16T09:49:55;4.00;91.90
44111;DHT22;29774;52.664;5.074;2023-01-16T09:52:29;4.00;92.00
44111;DHT22;29774;52.664;5.074;2023-01-16T09:55:58;4.00;92.00
44111;DHT22;29774;52.664;5.074;2023-01-16T09:58:42;4.00;92.10
44111;DHT22;29774;52.664;5.074;2023-01-16T10:01:15;4.10;92.10
44111;DHT22;29774;52.664;5.074;2023-01-16T10:03:41;4.00;92.20
44111;DHT22;29774;52.664;5.074;2023-01-16T10:11:21;4.10;92.20
44111;DHT22;29774;52.664;5.074;2023-01-16T10:14:05;4.10;92.20
44111;DHT22;29774;52.664;5.074;2023-01-16T10:16:43;4.10;92.20
44111;DHT22;29774;52.664;5.074;2023-01-16T10:19:21;4.10;92.20
44111;DHT22;29774;52.664;5.074;2023-01-16T10:25:05;4.10;92.10
44111;DHT22;29774;52.664;5.074;2023-01-16T10:30:30;4.10;92.10
44111;DHT22;29774;52.664;5.074;2023-01-16T10:33:22;4.20;92.10
44111;DHT22;29774;52.664;5.074;2023-01-16T10:35:51;4.10;92.10
44111;DHT22;29774;52.664;5.074;2023-01-16T10:38:43;4.20;92.00
44111;DHT22;29774;52.664;5.074;2023-01-16T10:44:11;4.20;92.10
44111;DHT22;29774;52.664;5.074;2023-01-16T10:47:00;4.20;92.20
44111;DHT22;29774;52.664;5.074;2023-01-16T10:49:45;4.20;92.30
44111;DHT22;29774;52.664;5.074;2023-01-16T10:52:11;4.20;92.30
44111;DHT22;29774;52.664;5.074;2023-01-16T10:54:37;4.20;92.40
44111;DHT22;29774;52.664;5.074;2023-01-16T10:57:14;4.20;92.40
44111;DHT22;29774;52.664;5.074;2023-01-16T10:59:40;4.20;92.50
44111;DHT22;29774;52.664;5.074;2023-01-16T11:03:04;4.30;92.50
44111;DHT22;29774;52.664;5.074;2023-01-16T11:05:25;4.30;92.50
44111;DHT22;29774;52.664;5.074;2023-01-16T11:08:16;4.30;92.60
44111;DHT22;29774;52.664;5.074;2023-01-16T11:10:43;4.40;92.60
44111;DHT22;29774;52.664;5.074;2023-01-16T11:13:20;4.30;92.60
44111;DHT22;29774;52.664;5.074;2023-01-16T11:16:27;4.40;92.70
44111;DHT22;29774;52.664;5.074;2023-01-16T11:19:23;4.30;92.70
44111;DHT22;29774;52.664;5.074;2023-01-16T11:22:00;4.40;92.70
44111;DHT22;29774;52.664;5.074;2023-01-16T11:24:34;4.40;92.80
44111;DHT22;29774;52.664;5.074;2023-01-16T11:27:02;4.50;92.80
44111;DHT22;29774;52.664;5.074;2023-01-16T11:29:37;4.50;92.80
44111;DHT22;29774;52.664;5.074;2023-01-16T11:32:10;4.50;92.80
44111;DHT22;29774;52.664;5.074;2023-01-16T11:34:39;4.50;92.80
44111;DHT22;29774;52.664;5.074;2023-01-16T11:37:12;4.60;92.80
44111;DHT22;29774;52.664;5.074;2023-01-16T11:39:39;4.60;92.90
44111;DHT22;29774;52.664;5.074;2023-01-16T11:42:11;4.60;92.90
44111;DHT22;29774;52.664;5.074;2023-01-16T11:44:57;4.70;92.90
44111;DHT22;29774;52.664;5.074;2023-01-16T11:47:44;4.90;92.70
44111;DHT22;29774;52.664;5.074;2023-01-16T11:50:29;4.90;92.50
44111;DHT22;29774;52.664;5.074;2023-01-16T11:52:56;4.80;92.50
44111;DHT22;29774;52.664;5.074;2023-01-16T11:55:29;4.80;92.40
44111;DHT22;29774;52.664;5.074;2023-01-16T11:58:12;4.80;92.30
44111;DHT22;29774;52.664;5.074;2023-01-16T12:06:11;4.80;92.30
44111;DHT22;29774;52.664;5.074;2023-01-16T12:11:11;4.90;91.80
44111;DHT22;29774;52.664;5.074;2023-01-16T12:14:08;4.90;91.50
44111;DHT22;29774;52.664;5.074;2023-01-16T12:35:38;4.80;91.30
44111;DHT22;29774;52.664;5.074;2023-01-16T12:38:19;4.90;91.50
44111;DHT22;29774;52.664;5.074;2023-01-16T12:40:51;4.90;91.70
44111;DHT22;29774;52.664;5.074;2023-01-16T12:46:50;5.00;91.90
44111;DHT22;29774;52.664;5.074;2023-01-16T12:49:30;5.00;92.00
44111;DHT22;29774;52.664;5.074;2023-01-16T12:55:05;5.00;92.10
44111;DHT22;29774;52.664;5.074;2023-01-16T12:57:31;5.20;92.10
44111;DHT22;29774;52.664;5.074;2023-01-16T13:00:20;5.20;92.00
44111;DHT22;29774;52.664;5.074;2023-01-16T13:03:08;5.10;91.90
44111;DHT22;29774;52.664;5.074;2023-01-16T13:05:36;5.10;91.90
44111;DHT22;29774;52.664;5.074;2023-01-16T13:08:11;5.10;92.00
44111;DHT22;29774;52.664;5.074;2023-01-16T13:10:44;5.10;92.00
44111;DHT22;29774;52.664;5.074;2023-01-16T13:13:34;5.00;92.10
44111;DHT22;29774;52.664;5.074;2023-01-16T13:16:21;5.10;92.10
44111;DHT22;29774;52.664;5.074;2023-01-16T13:18:58;5.00;92.10
44111;DHT22;29774;52.664;5.074;2023-01-16T13:21:29;5.00;92.20
44111;DHT22;29774;52.664;5.074;2023-01-16T13:24:03;5.00;92.20
44111;DHT22;29774;52.664;5.074;2023-01-16T13:26:31;5.00;92.30
44111;DHT22;29774;52.664;5.074;2023-01-16T13:31:44;5.00;92.40
44111;DHT22;29774;52.664;5.074;2023-01-16T13:37:11;5.00;92.50
44111;DHT22;29774;52.664;5.074;2023-01-16T13:42:55;4.90;92.70
44111;DHT22;29774;52.664;5.074;2023-01-16T13:45:31;5.00;92.70
44111;DHT22;29774;52.664;5.074;2023-01-16T13:48:28;5.00;92.70
44111;DHT22;29774;52.664;5.074;2023-01-16T13:51:00;5.00;92.80
44111;DHT22;29774;52.664;5.074;2023-01-16T13:53:28;5.00;92.90
44111;DHT22;29774;52.664;5.074;2023-01-16T13:56:10;5.00;92.90
44111;DHT22;29774;52.664;5.074;2023-01-16T13:58:42;5.00;93.00
44111;DHT22;29774;52.664;5.074;2023-01-16T14:01:52;5.00;93.10
44111;DHT22;29774;52.664;5.074;2023-01-16T14:06:50;5.00;93.20
44111;DHT22;29774;52.664;5.074;2023-01-16T14:16:23;5.00;93.20
44111;DHT22;29774;52.664;5.074;2023-01-16T14:19:01;5.00;93.20
44111;DHT22;29774;52.664;5.074;2023-01-16T14:24:03;5.00;93.20
44111;DHT22;29774;52.664;5.074;2023-01-16T14:29:26;5.00;93.20
44111;DHT22;29774;52.664;5.074;2023-01-16T14:31:57;5.00;93.20
44111;DHT22;29774;52.664;5.074;2023-01-16T14:34:28;5.00;93.20
44111;DHT22;29774;52.664;5.074;2023-01-16T14:37:06;5.00;93.20
44111;DHT22;29774;52.664;5.074;2023-01-16T14:39:47;5.00;93.20
44111;DHT22;29774;52.664;5.074;2023-01-16T14:42:35;5.00;93.20
44111;DHT22;29774;52.664;5.074;2023-01-16T14:54:10;5.00;93.20
44111;DHT22;29774;52.664;5.074;2023-01-16T14:59:36;5.00;93.20
44111;DHT22;29774;52.664;5.074;2023-01-16T15:02:33;4.90;93.20
44111;DHT22;29774;52.664;5.074;2023-01-16T15:07:47;4.90;93.20
44111;DHT22;29774;52.664;5.074;2023-01-16T15:10:36;4.90;93.20
44111;DHT22;29774;52.664;5.074;2023-01-16T15:13:15;4.90;93.20
44111;DHT22;29774;52.664;5.074;2023-01-16T15:15:47;4.90;93.20
44111;DHT22;29774;52.664;5.074;2023-01-16T15:18:16;4.90;93.20
44111;DHT22;29774;52.664;5.074;2023-01-16T15:21:02;4.90;93.20
44111;DHT22;29774;52.664;5.074;2023-01-16T15:24:08;5.00;93.20
44111;DHT22;29774;52.664;5.074;2023-01-16T15:27:02;4.90;93.20
44111;DHT22;29774;52.664;5.074;2023-01-16T15:29:44;5.00;93.20
44111;DHT22;29774;52.664;5.074;2023-01-16T15:32:14;5.00;93.30
44111;DHT22;29774;52.664;5.074;2023-01-16T15:34:47;5.00;93.30
44111;DHT22;29774;52.664;5.074;2023-01-16T15:37:21;5.00;93.40
44111;DHT22;29774;52.664;5.074;2023-01-16T15:39:49;5.00;93.40
44111;DHT22;29774;52.664;5.074;2023-01-16T15:42:23;5.10;93.40
44111;DHT22;29774;52.664;5.074;2023-01-16T15:45:22;5.00;93.50
44111;DHT22;29774;52.664;5.074;2023-01-16T15:48:31;5.10;93.50
44111;DHT22;29774;52.664;5.074;2023-01-16T15:51:07;5.10;93.50
44111;DHT22;29774;52.664;5.074;2023-01-16T15:53:42;5.10;93.50
44111;DHT22;29774;52.664;5.074;2023-01-16T15:56:19;5.00;93.40
44111;DHT22;29774;52.664;5.074;2023-01-16T15:58:46;4.90;93.40
44111;DHT22;29774;52.664;5.074;2023-01-16T16:01:14;4.80;93.30
44111;DHT22;29774;52.664;5.074;2023-01-16T16:03:42;4.70;93.30
44111;DHT22;29774;52.664;5.074;2023-01-16T16:06:11;4.70;93.20
44111;DHT22;29774;52.664;5.074;2023-01-16T16:08:43;4.70;93.10
44111;DHT22;29774;52.664;5.074;2023-01-16T16:11:30;4.70;92.90
44111;DHT22;29774;52.664;5.074;2023-01-16T16:14:22;4.70;92.80
44111;DHT22;29774;52.664;5.074;2023-01-16T16:22:50;4.50;92.30
44111;DHT22;29774;52.664;5.074;2023-01-16T16:25:24;4.40;92.30
44111;DHT22;29774;52.664;5.074;2023-01-16T16:27:51;4.40;92.30
44111;DHT22;29774;52.664;5.074;2023-01-16T16:30:23;4.40;92.30
44111;DHT22;29774;52.664;5.074;2023-01-16T16:32:50;4.40;92.30
44111;DHT22;29774;52.664;5.074;2023-01-16T16:35:20;4.30;92.30
44111;DHT22;29774;52.664;5.074;2023-01-16T16:37:47;4.30;92.30
44111;DHT22;29774;52.664;5.074;2023-01-16T16:40:15;4.20;92.30
44111;DHT22;29774;52.664;5.074;2023-01-16T16:45:10;4.20;92.40
44111;DHT22;29774;52.664;5.074;2023-01-16T16:47:41;4.20;92.40
44111;DHT22;29774;52.664;5.074;2023-01-16T16:50:30;4.20;92.40
44111;DHT22;29774;52.664;5.074;2023-01-16T16:55:37;4.20;92.50
44111;DHT22;29774;52.664;5.074;2023-01-16T16:58:11;4.20;92.50
44111;DHT22;29774;52.664;5.074;2023-01-16T17:00:38;4.20;92.60
44111;DHT22;29774;52.664;5.074;2023-01-16T17:03:19;4.20;92.60
44111;DHT22;29774;52.664;5.074;2023-01-16T17:05:46;4.20;92.60
44111;DHT22;29774;52.664;5.074;2023-01-16T17:08:20;4.20;92.60
44111;DHT22;29774;52.664;5.074;2023-01-16T17:10:46;4.20;92.70
44111;DHT22;29774;52.664;5.074;2023-01-16T17:13:15;4.20;92.60
44111;DHT22;29774;52.664;5.074;2023-01-16T17:15:42;4.20;92.60
44111;DHT22;29774;52.664;5.074;2023-01-16T17:18:09;4.20;92.70
44111;DHT22;29774;52.664;5.074;2023-01-16T17:20:36;4.20;92.70
44111;DHT22;29774;52.664;5.074;2023-01-16T17:23:02;4.20;92.70
44111;DHT22;29774;52.664;5.074;2023-01-16T17:25:30;4.30;92.70
44111;DHT22;29774;52.664;5.074;2023-01-16T17:27:56;4.60;92.60
44111;DHT22;29774;52.664;5.074;2023-01-16T17:30:23;4.50;92.40
44111;DHT22;29774;52.664;5.074;2023-01-16T17:32:55;4.40;92.20
44111;DHT22;29774;52.664;5.074;2023-01-16T17:35:21;4.30;92.20
44111;DHT22;29774;52.664;5.074;2023-01-16T17:37:47;4.50;92.10
44111;DHT22;29774;52.664;5.074;2023-01-16T17:40:12;4.50;91.80
44111;DHT22;29774;52.664;5.074;2023-01-16T17:42:38;4.50;91.70
44111;DHT22;29774;52.664;5.074;2023-01-16T17:45:44;4.50;91.40
44111;DHT22;29774;52.664;5.074;2023-01-16T17:48:29;4.50;91.30
44111;DHT22;29774;52.664;5.074;2023-01-16T17:50:55;4.50;91.10
44111;DHT22;29774;52.664;5.074;2023-01-16T17:53:22;4.40;91.00
44111;DHT22;29774;52.664;5.074;2023-01-16T17:55:50;4.30;91.00
44111;DHT22;29774;52.664;5.074;2023-01-16T18:01:05;4.20;90.90
44111;DHT22;29774;52.664;5.074;2023-01-16T18:03:32;4.20;90.90
44111;DHT22;29774;52.664;5.074;2023-01-16T18:06:08;4.20;90.90
44111;DHT22;29774;52.664;5.074;2023-01-16T18:08:35;4.10;90.70
44111;DHT22;29774;52.664;5.074;2023-01-16T18:11:05;4.00;90.70
44111;DHT22;29774;52.664;5.074;2023-01-16T18:13:51;4.00;90.70
44111;DHT22;29774;52.664;5.074;2023-01-16T18:16:36;4.10;90.70
44111;DHT22;29774;52.664;5.074;2023-01-16T18:19:20;4.00;90.60
44111;DHT22;29774;52.664;5.074;2023-01-16T18:21:46;4.10;90.60
44111;DHT22;29774;52.664;5.074;2023-01-16T18:26:52;4.20;90.40
44111;DHT22;29774;52.664;5.074;2023-01-16T18:29:18;4.10;90.40
44111;DHT22;29774;52.664;5.074;2023-01-16T18:31:43;4.00;90.50
44111;DHT22;29774;52.664;5.074;2023-01-16T18:34:29;4.00;90.60